Aviation Digital Data Service (ADDS)

Output produced by METARs form (1830 UTC 30 January 2015)
found at http://aviationweather.gov/adds/metars/
 
KBDL 301737Z 3018/3124 31012KT P6SM SCT020 BKN030 OVC090 
     FM302100 32011G23KT P6SM OVC025 
     FM310000 32013G27KT P6SM BKN040 
     FM311000 32014G28KT P6SM SCT200